sensor_id;sensor_type;location;lat;lon;timestamp;temperature;humidity
15152;DHT22;7676;50.900;6.234;2022-10-04T00:01:25;15.00;99.90
15152;DHT22;7676;50.900;6.234;2022-10-04T00:06:29;15.00;99.90
15152;DHT22;7676;50.900;6.234;2022-10-04T00:11:34;15.00;99.90
15152;DHT22;7676;50.900;6.234;2022-10-04T00:16:39;15.10;99.90
15152;DHT22;7676;50.900;6.234;2022-10-04T00:27:16;14.90;99.90
15152;DHT22;7676;50.900;6.234;2022-10-04T00:38:07;14.70;99.90
15152;DHT22;7676;50.900;6.234;2022-10-04T00:43:20;14.60;99.90
15152;DHT22;7676;50.900;6.234;2022-10-04T00:59:15;14.60;99.90
15152;DHT22;7676;50.900;6.234;2022-10-04T01:04:42;14.70;99.90
15152;DHT22;7676;50.900;6.234;2022-10-04T01:10:00;14.90;99.90
15152;DHT22;7676;50.900;6.234;2022-10-04T01:15:15;15.00;99.90
15152;DHT22;7676;50.900;6.234;2022-10-04T01:20:48;14.90;99.90
15152;DHT22;7676;50.900;6.234;2022-10-04T01:25:51;14.80;99.90
15152;DHT22;7676;50.900;6.234;2022-10-04T01:30:54;14.80;99.90
15152;DHT22;7676;50.900;6.234;2022-10-04T01:35:57;14.90;99.90
15152;DHT22;7676;50.900;6.234;2022-10-04T01:41:04;14.90;99.90
15152;DHT22;7676;50.900;6.234;2022-10-04T01:46:16;15.10;99.90
15152;DHT22;7676;50.900;6.234;2022-10-04T01:51:26;15.00;99.90
15152;DHT22;7676;50.900;6.234;2022-10-04T01:56:43;14.90;99.90
15152;DHT22;7676;50.900;6.234;2022-10-04T02:06:53;14.40;99.90
15152;DHT22;7676;50.900;6.234;2022-10-04T02:11:56;14.40;99.90
15152;DHT22;7676;50.900;6.234;2022-10-04T02:17:05;14.40;99.90
15152;DHT22;7676;50.900;6.234;2022-10-04T02:22:11;14.50;99.90
15152;DHT22;7676;50.900;6.234;2022-10-04T02:27:15;14.50;99.90
15152;DHT22;7676;50.900;6.234;2022-10-04T02:32:18;14.40;99.90
15152;DHT22;7676;50.900;6.234;2022-10-04T02:37:39;14.10;99.90
15152;DHT22;7676;50.900;6.234;2022-10-04T02:48:00;14.20;99.90
15152;DHT22;7676;50.900;6.234;2022-10-04T02:53:29;14.10;99.90
15152;DHT22;7676;50.900;6.234;2022-10-04T02:58:38;14.20;99.90
15152;DHT22;7676;50.900;6.234;2022-10-04T03:03:44;14.20;99.90
15152;DHT22;7676;50.900;6.234;2022-10-04T03:08:54;14.20;99.90
15152;DHT22;7676;50.900;6.234;2022-10-04T03:13:59;14.30;99.90
15152;DHT22;7676;50.900;6.234;2022-10-04T03:19:05;14.30;99.90
15152;DHT22;7676;50.900;6.234;2022-10-04T03:24:16;14.30;99.90
15152;DHT22;7676;50.900;6.234;2022-10-04T03:29:22;14.30;99.90
15152;DHT22;7676;50.900;6.234;2022-10-04T03:34:31;14.00;99.90
15152;DHT22;7676;50.900;6.234;2022-10-04T03:39:43;14.00;99.90
15152;DHT22;7676;50.900;6.234;2022-10-04T03:44:49;14.30;99.90
15152;DHT22;7676;50.900;6.234;2022-10-04T03:49:53;14.20;99.90
15152;DHT22;7676;50.900;6.234;2022-10-04T03:55:02;14.10;99.90
15152;DHT22;7676;50.900;6.234;2022-10-04T04:00:07;14.00;99.90
15152;DHT22;7676;50.900;6.234;2022-10-04T04:05:27;14.10;99.90
15152;DHT22;7676;50.900;6.234;2022-10-04T04:10:33;14.90;99.90
15152;DHT22;7676;50.900;6.234;2022-10-04T04:15:38;14.00;99.90
15152;DHT22;7676;50.900;6.234;2022-10-04T04:20:48;14.10;99.90
15152;DHT22;7676;50.900;6.234;2022-10-04T04:26:00;14.00;99.90
15152;DHT22;7676;50.900;6.234;2022-10-04T04:31:19;14.00;99.90
15152;DHT22;7676;50.900;6.234;2022-10-04T04:36:23;14.00;99.90
15152;DHT22;7676;50.900;6.234;2022-10-04T04:41:30;13.90;99.90
15152;DHT22;7676;50.900;6.234;2022-10-04T04:46:37;13.90;99.90
15152;DHT22;7676;50.900;6.234;2022-10-04T04:51:40;13.70;99.90
15152;DHT22;7676;50.900;6.234;2022-10-04T04:56:50;13.50;99.90
15152;DHT22;7676;50.900;6.234;2022-10-04T05:01:54;13.50;99.90
15152;DHT22;7676;50.900;6.234;2022-10-04T05:07:05;13.60;99.90
15152;DHT22;7676;50.900;6.234;2022-10-04T05:12:20;13.60;99.90
15152;DHT22;7676;50.900;6.234;2022-10-04T05:17:25;13.70;99.90
15152;DHT22;7676;50.900;6.234;2022-10-04T05:22:29;13.80;99.90
15152;DHT22;7676;50.900;6.234;2022-10-04T05:27:38;13.80;99.90
15152;DHT22;7676;50.900;6.234;2022-10-04T05:32:59;13.70;99.90
15152;DHT22;7676;50.900;6.234;2022-10-04T05:38:14;13.80;99.90
15152;DHT22;7676;50.900;6.234;2022-10-04T05:43:37;13.60;99.90
15152;DHT22;7676;50.900;6.234;2022-10-04T05:49:10;13.40;99.90
15152;DHT22;7676;50.900;6.234;2022-10-04T05:54:11;13.20;99.90
15152;DHT22;7676;50.900;6.234;2022-10-04T06:25:51;12.40;99.90
15152;DHT22;7676;50.900;6.234;2022-10-04T06:36:41;12.70;99.90
15152;DHT22;7676;50.900;6.234;2022-10-04T06:47:31;12.60;99.90
15152;DHT22;7676;50.900;6.234;2022-10-04T07:09:27;12.50;99.90
15152;DHT22;7676;50.900;6.234;2022-10-04T07:14:37;12.30;99.90
15152;DHT22;7676;50.900;6.234;2022-10-04T07:19:45;12.60;99.90
15152;DHT22;7676;50.900;6.234;2022-10-04T07:30:22;13.00;99.90
15152;DHT22;7676;50.900;6.234;2022-10-04T07:35:34;12.90;99.90
15152;DHT22;7676;50.900;6.234;2022-10-04T07:40:40;13.30;99.90
15152;DHT22;7676;50.900;6.234;2022-10-04T07:45:45;13.40;99.90
15152;DHT22;7676;50.900;6.234;2022-10-04T07:51:06;13.70;99.90
15152;DHT22;7676;50.900;6.234;2022-10-04T08:07:25;14.10;99.90
15152;DHT22;7676;50.900;6.234;2022-10-04T08:12:47;14.20;99.90
15152;DHT22;7676;50.900;6.234;2022-10-04T08:46:41;14.50;99.90
15152;DHT22;7676;50.900;6.234;2022-10-04T08:57:18;14.30;99.90
15152;DHT22;7676;50.900;6.234;2022-10-04T09:08:06;14.60;99.90
15152;DHT22;7676;50.900;6.234;2022-10-04T09:30:02;15.50;99.90
15152;DHT22;7676;50.900;6.234;2022-10-04T10:07:20;16.10;99.90
15152;DHT22;7676;50.900;6.234;2022-10-04T10:18:21;16.30;99.90
15152;DHT22;7676;50.900;6.234;2022-10-04T10:29:39;16.40;99.90
15152;DHT22;7676;50.900;6.234;2022-10-04T10:57:05;17.00;99.90
15152;DHT22;7676;50.900;6.234;2022-10-04T11:08:00;17.50;99.90
15152;DHT22;7676;50.900;6.234;2022-10-04T11:19:16;18.20;99.90
15152;DHT22;7676;50.900;6.234;2022-10-04T11:30:08;18.60;99.90
15152;DHT22;7676;50.900;6.234;2022-10-04T11:36:16;19.00;99.90
15152;DHT22;7676;50.900;6.234;2022-10-04T12:02:51;19.00;99.90
15152;DHT22;7676;50.900;6.234;2022-10-04T12:24:24;19.50;99.90
15152;DHT22;7676;50.900;6.234;2022-10-04T12:35:31;19.70;99.90
15152;DHT22;7676;50.900;6.234;2022-10-04T12:46:35;19.60;99.90
15152;DHT22;7676;50.900;6.234;2022-10-04T12:52:43;19.70;99.90
15152;DHT22;7676;50.900;6.234;2022-10-04T13:30:04;21.30;99.90
15152;DHT22;7676;50.900;6.234;2022-10-04T13:35:24;21.70;99.90
15152;DHT22;7676;50.900;6.234;2022-10-04T13:46:16;21.60;99.90
15152;DHT22;7676;50.900;6.234;2022-10-04T14:03:27;21.70;99.90
15152;DHT22;7676;50.900;6.234;2022-10-04T14:35:29;21.80;99.90
15152;DHT22;7676;50.900;6.234;2022-10-04T14:41:07;21.70;99.90
15152;DHT22;7676;50.900;6.234;2022-10-04T14:57:25;21.50;99.90
15152;DHT22;7676;50.900;6.234;2022-10-04T15:13:52;21.40;99.90
15152;DHT22;7676;50.900;6.234;2022-10-04T15:19:21;21.30;99.90
15152;DHT22;7676;50.900;6.234;2022-10-04T15:24:44;21.30;99.90
15152;DHT22;7676;50.900;6.234;2022-10-04T15:30:28;21.30;99.90
15152;DHT22;7676;50.900;6.234;2022-10-04T15:57:15;21.10;99.90
15152;DHT22;7676;50.900;6.234;2022-10-04T16:02:36;21.10;99.90
15152;DHT22;7676;50.900;6.234;2022-10-04T16:29:49;20.50;99.90
15152;DHT22;7676;50.900;6.234;2022-10-04T16:35:29;20.40;99.90
15152;DHT22;7676;50.900;6.234;2022-10-04T16:41:04;20.30;99.90
15152;DHT22;7676;50.900;6.234;2022-10-04T16:51:20;20.20;99.90
15152;DHT22;7676;50.900;6.234;2022-10-04T16:56:30;20.10;99.90
15152;DHT22;7676;50.900;6.234;2022-10-04T17:02:02;19.90;99.90
15152;DHT22;7676;50.900;6.234;2022-10-04T17:12:44;19.70;99.90
15152;DHT22;7676;50.900;6.234;2022-10-04T17:28:57;19.70;99.90
15152;DHT22;7676;50.900;6.234;2022-10-04T17:34:43;19.70;99.90
15152;DHT22;7676;50.900;6.234;2022-10-04T17:40:06;19.80;99.90
15152;DHT22;7676;50.900;6.234;2022-10-04T17:45:30;19.70;99.90
15152;DHT22;7676;50.900;6.234;2022-10-04T17:51:03;19.70;99.90
15152;DHT22;7676;50.900;6.234;2022-10-04T17:56:44;19.50;99.90
15152;DHT22;7676;50.900;6.234;2022-10-04T18:02:01;19.40;99.90
15152;DHT22;7676;50.900;6.234;2022-10-04T18:07:24;19.50;99.90
15152;DHT22;7676;50.900;6.234;2022-10-04T18:12:45;19.50;99.90
15152;DHT22;7676;50.900;6.234;2022-10-04T18:17:50;19.40;99.90
15152;DHT22;7676;50.900;6.234;2022-10-04T18:23:17;19.30;99.90
15152;DHT22;7676;50.900;6.234;2022-10-04T18:28:24;19.40;99.90
15152;DHT22;7676;50.900;6.234;2022-10-04T18:38:36;19.20;99.90
15152;DHT22;7676;50.900;6.234;2022-10-04T18:44:10;19.10;99.90
15152;DHT22;7676;50.900;6.234;2022-10-04T18:49:18;19.20;99.90
15152;DHT22;7676;50.900;6.234;2022-10-04T19:00:11;18.90;99.90
15152;DHT22;7676;50.900;6.234;2022-10-04T19:05:37;18.90;99.90
15152;DHT22;7676;50.900;6.234;2022-10-04T19:10:48;18.70;99.90
15152;DHT22;7676;50.900;6.234;2022-10-04T19:16:23;18.60;99.90
15152;DHT22;7676;50.900;6.234;2022-10-04T19:27:07;18.30;99.90
15152;DHT22;7676;50.900;6.234;2022-10-04T19:38:04;18.10;99.90
15152;DHT22;7676;50.900;6.234;2022-10-04T19:48:48;17.80;99.90
15152;DHT22;7676;50.900;6.234;2022-10-04T19:53:53;17.80;99.90
15152;DHT22;7676;50.900;6.234;2022-10-04T19:59:22;17.70;99.90
15152;DHT22;7676;50.900;6.234;2022-10-04T20:04:28;17.80;99.90
15152;DHT22;7676;50.900;6.234;2022-10-04T20:14:43;18.00;99.90
15152;DHT22;7676;50.900;6.234;2022-10-04T20:19:46;17.90;99.90
15152;DHT22;7676;50.900;6.234;2022-10-04T20:24:49;17.70;99.90
15152;DHT22;7676;50.900;6.234;2022-10-04T20:35:09;17.80;99.90
15152;DHT22;7676;50.900;6.234;2022-10-04T20:45:28;18.40;99.90
15152;DHT22;7676;50.900;6.234;2022-10-04T20:50:37;17.70;99.90
15152;DHT22;7676;50.900;6.234;2022-10-04T20:55:41;17.60;99.90
15152;DHT22;7676;50.900;6.234;2022-10-04T21:00:56;17.50;99.90
15152;DHT22;7676;50.900;6.234;2022-10-04T21:06:06;17.30;99.90
15152;DHT22;7676;50.900;6.234;2022-10-04T21:11:18;17.30;99.90
15152;DHT22;7676;50.900;6.234;2022-10-04T21:16:52;17.10;99.90
15152;DHT22;7676;50.900;6.234;2022-10-04T21:22:30;17.00;99.90
15152;DHT22;7676;50.900;6.234;2022-10-04T21:27:38;16.90;99.90
15152;DHT22;7676;50.900;6.234;2022-10-04T21:32:41;16.70;99.90
15152;DHT22;7676;50.900;6.234;2022-10-04T21:37:44;16.70;99.90
15152;DHT22;7676;50.900;6.234;2022-10-04T21:42:46;16.80;99.90
15152;DHT22;7676;50.900;6.234;2022-10-04T21:47:49;16.80;99.90
15152;DHT22;7676;50.900;6.234;2022-10-04T21:52:52;16.70;99.90
15152;DHT22;7676;50.900;6.234;2022-10-04T21:57:55;16.50;99.90
15152;DHT22;7676;50.900;6.234;2022-10-04T22:02:57;16.40;99.90
15152;DHT22;7676;50.900;6.234;2022-10-04T22:08:00;16.30;99.90
15152;DHT22;7676;50.900;6.234;2022-10-04T22:13:03;16.40;99.90
15152;DHT22;7676;50.900;6.234;2022-10-04T22:18:06;16.30;99.90
15152;DHT22;7676;50.900;6.234;2022-10-04T22:23:20;16.20;99.90
15152;DHT22;7676;50.900;6.234;2022-10-04T22:28:25;16.10;99.90
15152;DHT22;7676;50.900;6.234;2022-10-04T22:33:35;16.10;99.90
15152;DHT22;7676;50.900;6.234;2022-10-04T22:38:40;16.00;99.90
15152;DHT22;7676;50.900;6.234;2022-10-04T22:43:48;15.90;99.90
15152;DHT22;7676;50.900;6.234;2022-10-04T22:48:51;15.90;99.90
15152;DHT22;7676;50.900;6.234;2022-10-04T22:53:54;15.70;99.90
15152;DHT22;7676;50.900;6.234;2022-10-04T22:58:58;15.90;99.90
15152;DHT22;7676;50.900;6.234;2022-10-04T23:04:01;15.80;99.90
15152;DHT22;7676;50.900;6.234;2022-10-04T23:09:05;15.90;99.90
15152;DHT22;7676;50.900;6.234;2022-10-04T23:14:08;16.10;99.90
15152;DHT22;7676;50.900;6.234;2022-10-04T23:19:14;16.20;99.90
15152;DHT22;7676;50.900;6.234;2022-10-04T23:24:21;16.20;99.90
15152;DHT22;7676;50.900;6.234;2022-10-04T23:29:26;16.10;99.90
15152;DHT22;7676;50.900;6.234;2022-10-04T23:34:36;16.10;99.90
15152;DHT22;7676;50.900;6.234;2022-10-04T23:39:39;16.00;99.90
15152;DHT22;7676;50.900;6.234;2022-10-04T23:44:42;16.00;99.90
15152;DHT22;7676;50.900;6.234;2022-10-04T23:49:47;16.00;99.90
15152;DHT22;7676;50.900;6.234;2022-10-04T23:54:52;15.80;99.90
15152;DHT22;7676;50.900;6.234;2022-10-04T23:59:57;15.80;99.90
